Ahar, Iran

1:33 AM IRDT on September 02, 2014 (GMT +0430)
Tabriz International | Change Station
CLOSE
Current Station
Airport
Location: Tabriz,
Elevation: 4459 ft
Nearby Weather Stations

Elev 4459 ft 38.13 °N, 46.24 °E | Updated 3 minutes ago

Clear
Clear
75 °F
Feels Like 75 °F
N
14
Wind Variable Wind from ESE

Today
High -- | Low -- °F
--% Chance of Precip.
Yesterday
High -- | Low -- °F
Precip. -- in
6:51 AM 7:50 PM
Waxing Crescent, 44% visible
Pressure 29.98 in
Visibility -9999.0 miles
Clouds
Dew Point 50 °F
Humidity 41%
Rainfall 0.00 in
Snow Depth Not available.
UV Not available.
Pollen Not available.
Air Quality Not available.
Flu Activity Not available.
METAR OITT 012100Z 11012KT CAVOK 24/10 Q1015 A2997

More Conditions Fewer Conditions

Pressure 29.98 in
Visibility -9999.0 miles
Clouds
Dew Point 50 °F
Humidity 41%
Rainfall 0.00 in
Snow Depth Not available.
UV Not available.
Pollen Not available.
Air Quality Not available.
Flu Activity Not available.
METAR OITT 012100Z 11012KT CAVOK 24/10 Q1015 A2997

More Conditions Fewer Conditions

10-Day Weather Forecast

Almanac

Astronomy

Sep. 02, 2014 Rise Set
Actual Time 6:51 AM IRDT 7:50 PM IRDT
Civil Twilight 6:24 AM IRDT 8:17 PM IRDT
Nautical Twilight 5:52 AM IRDT 8:49 PM IRDT
Astronomical Twilight 5:18 AM IRDT 9:23 PM IRDT
Moon 2:08 PM IRDT (9/2) 12:29 AM IRDT (9/3)
Length of Visible Light 13h 53m
Length of Day
12h 58m
Tomorrow will be 2m 24s shorter.
Waxing Crescent, 44% of the Moon is Illuminated
Sep 1
Waxing Crescent
Sep 2
First Quarter
Sep 8
Full
Sep 15
Last Quarter
Sep 24
New

Yesterday's Extremes

Country Highs Country Lows

Community

WunderPhotos

Upload Photos

1,749,407 photos uploaded!

WunderBlogs® & News

Nearby

Snow Depth

Not available.

Earthquake Activity

City Distance Mag. Time & Date
No recent earthquake activity has been reported nearby.
Minimum magnitude displayed is 2.5.

Coastal Water Temperatures

Place Temperature
No Stations Reporting

Nearby Weather Stations